Wasilla, AK (99654)

2:19 PM AKDT on March 29, 2017 (GMT -0800)
Mack Road | | Change Station

Elev 289 ft 61.56 °N, 149.53 °W | Updated 3 days ago

Snow
Snow
30.0 °F
Feels Like 26 °F
N
4.0
Wind Variable Wind from SE
Gusts 4.0 mph

Today
High -- | Low -- °F
--% Chance of Precip.
Yesterday
High -- | Low -- °F
Precip. -- in
Pressure 29.67 in
Visibility 1.0 miles
Clouds Mostly Cloudy 1000 ft
Overcast 1800 ft
Windchill 26 °F
Dew Point 8 °F
Humidity 39%
Rainfall 0.32 in
Snow Depth Not available.
7:28 AM 8:37 PM
Waxing Crescent, 5% visible
METAR PAWS 292216Z AUTO 22003KT 1SM BKN010 OVC018 M02/M03 A2967 RMK AO1
Pressure 29.67 in
Visibility 1.0 miles
Clouds Mostly Cloudy 1000 ft
Overcast 1800 ft
Windchill 26 °F
Dew Point 8 °F
Humidity 39%
Rainfall 0.32 in
Snow Depth Not available.
7:28 AM 8:37 PM
Waxing Crescent, 5% visible
METAR PAWS 292216Z AUTO 22003KT 1SM BKN010 OVC018 M02/M03 A2967 RMK AO1

Get Severe Weather Alerts

Thanks for signing up!

Be on the lookout for a verification email in your inbox.

You'll start receiving the daily forecast at 8 AM.

×

10-Day Weather Forecast

Almanac

Astronomy

Mar. 29, 2017 Rise Set
Actual Time
Civil Twilight
Nautical Twilight
Astronomical Twilight
Moon
Length of Visible Light
Length of Day
Tomorrow will be .
, % of the Moon is Illuminated

Today's Extremes

State Highs State Lows

Community

WunderPhotos

Upload Photos

1,962,540 photos uploaded!

WunderBlog® & News

Nearby

Air Quality

  Air Quality AQ Index Pollutant
Not available.

Snow Depth

Station Depth Elevation

Earthquake Activity

City Distance Mag. Time & Date
Minimum magnitude displayed is 2.5.

Earthquake Activity

City Distance Mag. Time & Date
Minimum magnitude displayed is 2.5.

Coastal Water Temperatures

Place Temperature

Stations

Nearby Weather Stations

Station Location Temp. Windchill Dew Point Humidity Wind Precip. Elev Updated Type
                   

Watches & Warnings

There are currently no watches in effect.